Time;durP1;ratioP1;P1;durP2;ratioP2;P2;SDS_P1;SDS_P2;PMS_P1;PMS_P2;Temp;Humidity;BMP_temperature;BMP_pressure;BME280_temperature;BME280_humidity;BME280_pressure;Samples;Min_cycle;Max_cycle;Signal;HPM_P1;HPM_P2
2023/05/01 00:01:24;;;;;;;3.05;1.77;;;11.80;99.90;;;;;;5005550;28;20037;-64
2023/05/01 00:03:50;;;;;;;4.15;2.08;;;11.80;99.90;;;;;;5002267;28;20024;-65
2023/05/01 00:06:15;;;;;;;6.00;2.00;;;11.80;99.90;;;;;;5001964;28;20063;-64
2023/05/01 00:08:41;;;;;;;3.80;2.13;;;11.80;99.90;;;;;;5001562;28;20106;-64
2023/05/01 00:11:11;;;;;;;6.45;2.65;;;11.80;99.90;;;;;;5001345;28;20080;-64
2023/05/01 00:13:37;;;;;;;4.65;2.60;;;11.80;99.90;;;;;;5000859;28;20020;-64
2023/05/01 00:16:08;;;;;;;4.32;2.25;;;11.90;99.90;;;;;;5006250;28;20029;-63
2023/05/01 00:18:33;;;;;;;12.73;2.70;;;11.90;99.90;;;;;;5004332;28;20080;-64
2023/05/01 00:20:59;;;;;;;8.48;4.05;;;11.90;99.90;;;;;;5003050;28;20540;-64
2023/05/01 00:23:24;;;;;;;5.07;2.67;;;11.90;99.90;;;;;;5000147;28;20101;-64
2023/05/01 00:25:50;;;;;;;3.33;1.92;;;11.90;99.90;;;;;;5005530;28;20033;-65
2023/05/01 00:28:18;;;;;;;5.55;2.28;;;11.90;99.90;;;;;;5005651;28;20029;-64
2023/05/01 00:30:44;;;;;;;6.90;1.98;;;11.90;99.80;;;;;;5005543;28;20496;-64
2023/05/01 00:33:10;;;;;;;5.65;2.60;;;11.90;99.80;;;;;;5004046;28;20026;-64
2023/05/01 00:35:36;;;;;;;4.72;2.60;;;12.00;99.60;;;;;;5007443;28;20025;-65
2023/05/01 00:38:01;;;;;;;5.85;2.95;;;12.00;99.60;;;;;;4999936;28;20526;-64
2023/05/01 00:40:27;;;;;;;4.85;2.40;;;12.00;99.50;;;;;;4980634;28;20069;-63
2023/05/01 00:42:53;;;;;;;11.40;2.90;;;12.00;99.70;;;;;;5003572;28;20061;-64
2023/05/01 00:45:19;;;;;;;7.93;4.20;;;12.00;99.30;;;;;;5009545;28;20040;-64
2023/05/01 00:47:45;;;;;;;4.80;3.22;;;12.00;99.60;;;;;;5008654;28;20403;-64
2023/05/01 00:50:11;;;;;;;4.75;1.90;;;11.90;99.70;;;;;;5007461;28;20109;-64
2023/05/01 00:52:38;;;;;;;3.97;2.05;;;12.00;99.80;;;;;;5006193;28;20108;-64
2023/05/01 00:55:04;;;;;;;4.32;2.10;;;11.90;99.60;;;;;;5001487;28;20060;-64
2023/05/01 00:57:31;;;;;;;8.07;2.08;;;12.00;99.10;;;;;;5006999;28;20022;-65
2023/05/01 00:59:57;;;;;;;3.97;1.92;;;12.00;99.60;;;;;;5005718;28;20113;-64
2023/05/01 01:02:23;;;;;;;4.13;2.55;;;12.00;99.50;;;;;;5004590;28;20125;-63
2023/05/01 01:04:49;;;;;;;6.25;2.20;;;11.90;99.50;;;;;;5005403;28;20034;-65
2023/05/01 01:07:39;;;;;;;2.38;1.70;;;11.90;99.70;;;;;;5007598;28;20033;-64
2023/05/01 01:10:17;;;;;;;4.63;2.28;;;11.90;99.70;;;;;;5001632;28;20675;-64
2023/05/01 01:13:06;;;;;;;4.22;2.08;;;11.90;99.90;;;;;;4997921;28;20042;-63
2023/05/01 01:15:49;;;;;;;4.03;1.52;;;11.90;99.80;;;;;;5004845;28;20103;-64
2023/05/01 01:18:32;;;;;;;3.78;1.92;;;11.90;99.90;;;;;;4999225;28;20087;-63
2023/05/01 01:21:05;;;;;;;3.13;1.67;;;11.80;99.90;;;;;;5004823;28;20052;-64
2023/05/01 01:23:45;;;;;;;3.55;1.92;;;11.80;99.90;;;;;;5004569;28;20034;-64
2023/05/01 01:26:47;;;;;;;5.40;1.85;;;11.70;99.90;;;;;;5008277;28;20030;-63
2023/05/01 01:29:18;;;;;;;4.95;1.88;;;11.60;99.90;;;;;;5004380;28;20026;-64
2023/05/01 01:32:02;;;;;;;5.78;1.80;;;11.50;99.90;;;;;;5007050;28;20036;-65
2023/05/01 01:34:40;;;;;;;3.55;1.80;;;11.50;99.90;;;;;;5007898;28;20022;-64
2023/05/01 01:37:09;;;;;;;5.28;2.00;;;11.50;99.90;;;;;;5003960;28;20116;-65
2023/05/01 01:40:00;;;;;;;5.80;1.88;;;11.60;99.90;;;;;;5005060;28;20034;-64
2023/05/01 01:42:33;;;;;;;4.50;2.08;;;11.60;99.90;;;;;;4987535;28;20038;-65
2023/05/01 01:45:04;;;;;;;6.60;2.50;;;11.70;99.90;;;;;;5005456;28;20026;-63
2023/05/01 01:47:32;;;;;;;6.55;1.50;;;11.70;99.90;;;;;;5006108;28;20034;-63
2023/05/01 01:50:00;;;;;;;4.60;2.00;;;11.70;99.90;;;;;;5008300;28;20491;-64
2023/05/01 01:52:28;;;;;;;5.20;1.95;;;11.60;99.90;;;;;;5003916;28;20029;-65
2023/05/01 01:54:59;;;;;;;3.38;1.95;;;11.60;99.90;;;;;;5011938;28;20471;-65
2023/05/01 01:57:26;;;;;;;4.43;2.20;;;11.50;99.90;;;;;;5008132;28;20036;-64
2023/05/01 01:59:53;;;;;;;5.32;1.83;;;11.50;99.90;;;;;;5010597;28;20073;-65
2023/05/01 02:02:20;;;;;;;3.63;1.65;;;11.50;99.90;;;;;;5009959;28;20037;-65
2023/05/01 02:04:48;;;;;;;6.43;2.45;;;11.50;99.90;;;;;;5015073;28;20037;-65
2023/05/01 02:07:15;;;;;;;2.72;1.65;;;11.40;99.90;;;;;;5007137;28;20040;-64
2023/05/01 02:09:43;;;;;;;6.78;2.35;;;11.40;99.90;;;;;;5015133;28;20111;-64
2023/05/01 02:12:10;;;;;;;4.65;2.42;;;11.40;99.90;;;;;;5007794;28;20026;-64
2023/05/01 02:14:37;;;;;;;3.72;1.60;;;11.40;99.90;;;;;;5003931;28;20056;-65
2023/05/01 02:17:04;;;;;;;6.93;2.15;;;11.40;99.90;;;;;;5005957;28;20371;-64
2023/05/01 02:19:32;;;;;;;2.53;1.70;;;11.40;99.90;;;;;;5006861;28;20018;-64
2023/05/01 02:22:00;;;;;;;2.67;1.77;;;11.40;99.90;;;;;;5008501;28;20034;-64
2023/05/01 02:24:28;;;;;;;5.20;1.90;;;11.40;99.90;;;;;;5003523;28;20506;-64
2023/05/01 02:26:59;;;;;;;3.75;1.65;;;11.40;99.90;;;;;;5007907;28;20495;-64
2023/05/01 02:29:25;;;;;;;3.25;2.10;;;11.50;99.90;;;;;;5004719;28;20053;-64
2023/05/01 02:31:51;;;;;;;1.92;1.58;;;11.50;99.90;;;;;;5007091;28;20029;-64
2023/05/01 02:34:16;;;;;;;6.35;2.20;;;11.50;99.90;;;;;;5006223;28;20030;-64
2023/05/01 02:36:42;;;;;;;3.63;1.85;;;11.50;99.90;;;;;;5004898;28;20030;-64
2023/05/01 02:39:08;;;;;;;3.45;1.90;;;11.50;99.90;;;;;;5004468;28;20029;-64
2023/05/01 02:41:35;;;;;;;2.88;1.70;;;11.50;99.90;;;;;;4990378;28;20042;-65
2023/05/01 02:44:03;;;;;;;6.63;2.00;;;11.50;99.90;;;;;;5004844;28;20038;-64
2023/05/01 02:46:32;;;;;;;6.55;1.88;;;11.40;99.90;;;;;;5007807;28;20030;-64
2023/05/01 02:49:01;;;;;;;3.00;2.00;;;11.40;99.90;;;;;;5011594;28;20112;-64
2023/05/01 02:51:28;;;;;;;8.70;2.80;;;11.40;99.90;;;;;;5012298;28;20117;-65
2023/05/01 02:53:54;;;;;;;8.02;2.75;;;11.40;99.90;;;;;;5008116;28;20033;-65
2023/05/01 02:56:20;;;;;;;4.70;2.63;;;11.30;99.90;;;;;;5005533;28;20048;-64
2023/05/01 02:58:50;;;;;;;3.58;2.10;;;11.30;99.90;;;;;;5009653;28;20045;-64
2023/05/01 03:01:16;;;;;;;5.72;2.17;;;11.20;99.90;;;;;;5005540;28;20032;-64
2023/05/01 03:03:41;;;;;;;7.15;3.22;;;11.20;99.90;;;;;;5016541;28;20515;-64
2023/05/01 03:06:07;;;;;;;5.97;2.97;;;11.10;99.90;;;;;;5005340;28;20029;-64
2023/05/01 03:08:33;;;;;;;5.07;2.95;;;11.10;99.90;;;;;;5008666;28;20030;-65
2023/05/01 03:10:58;;;;;;;6.13;2.60;;;11.00;99.90;;;;;;5007873;28;20034;-63
2023/05/01 03:13:24;;;;;;;3.83;2.30;;;11.00;99.90;;;;;;5009208;28;20036;-65
2023/05/01 03:15:50;;;;;;;4.13;2.33;;;11.00;99.90;;;;;;5004199;28;20026;-64
2023/05/01 03:18:15;;;;;;;3.38;1.88;;;10.90;99.90;;;;;;5008028;28;20455;-65
2023/05/01 03:20:51;;;;;;;4.75;2.40;;;10.80;99.90;;;;;;5006262;28;20030;-64
2023/05/01 03:23:16;;;;;;;5.00;2.05;;;10.70;99.90;;;;;;5009055;28;20488;-65
2023/05/01 03:25:42;;;;;;;5.38;1.77;;;10.70;99.90;;;;;;5005856;28;20052;-65
2023/05/01 03:28:08;;;;;;;8.77;2.38;;;10.70;99.90;;;;;;5007284;28;20092;-63
2023/05/01 03:30:35;;;;;;;5.72;1.77;;;10.60;99.90;;;;;;5007062;28;20140;-64
2023/05/01 03:33:00;;;;;;;4.30;2.05;;;10.60;99.90;;;;;;5005707;28;20114;-65
2023/05/01 03:35:26;;;;;;;5.85;2.33;;;10.50;99.90;;;;;;5006546;28;20108;-64
2023/05/01 03:37:51;;;;;;;3.92;2.25;;;10.60;99.90;;;;;;5009791;28;20037;-64
2023/05/01 03:40:18;;;;;;;5.47;2.50;;;10.50;99.90;;;;;;5006222;28;20464;-65
2023/05/01 03:42:43;;;;;;;7.47;2.33;;;10.50;99.90;;;;;;4990772;28;20054;-65
2023/05/01 03:45:10;;;;;;;5.57;2.97;;;10.40;99.90;;;;;;5007544;28;20061;-65
2023/05/01 03:47:35;;;;;;;3.83;2.33;;;10.40;99.90;;;;;;5006692;28;20100;-64
2023/05/01 03:50:01;;;;;;;3.55;2.25;;;10.40;99.90;;;;;;5005685;28;20481;-65
2023/05/01 03:54:54;;;;;;;11.43;3.63;;;10.40;99.90;;;;;;5044606;23;20080;-65
2023/05/01 03:57:20;;;;;;;5.43;2.50;;;10.30;99.90;;;;;;5029921;28;20068;-65
2023/05/01 03:59:46;;;;;;;3.90;2.33;;;10.30;99.90;;;;;;5025612;28;20032;-64
2023/05/01 04:02:12;;;;;;;8.25;2.72;;;10.30;99.90;;;;;;5028123;28;20022;-64
2023/05/01 04:04:37;;;;;;;4.85;2.78;;;10.30;99.90;;;;;;5023196;28;20145;-64
2023/05/01 04:07:04;;;;;;;5.70;2.60;;;10.30;99.90;;;;;;5004097;28;20025;-64
2023/05/01 04:09:30;;;;;;;5.97;2.47;;;10.20;99.90;;;;;;5031122;28;20053;-63
2023/05/01 04:11:55;;;;;;;5.72;2.90;;;10.20;99.90;;;;;;5028876;28;20075;-65
2023/05/01 04:14:21;;;;;;;3.92;2.00;;;10.20;99.90;;;;;;5025404;28;20040;-66
2023/05/01 04:16:47;;;;;;;8.80;2.50;;;10.20;99.90;;;;;;5014222;28;20519;-64
2023/05/01 04:19:12;;;;;;;5.97;2.65;;;10.10;99.90;;;;;;5006770;28;20033;-66
2023/05/01 04:21:38;;;;;;;3.50;2.08;;;10.10;99.90;;;;;;5019651;28;20045;-64
2023/05/01 04:24:04;;;;;;;3.42;2.03;;;10.10;99.90;;;;;;5008762;28;20057;-65
2023/05/01 04:26:30;;;;;;;3.72;2.20;;;10.00;99.90;;;;;;5027796;28;20044;-63
2023/05/01 04:28:55;;;;;;;4.05;3.05;;;10.00;99.90;;;;;;5021930;28;20022;-63
2023/05/01 04:31:21;;;;;;;5.35;2.53;;;10.00;99.90;;;;;;5019953;28;20604;-66
2023/05/01 04:33:46;;;;;;;3.30;2.22;;;10.00;99.90;;;;;;5024437;28;20076;-61
2023/05/01 04:36:12;;;;;;;4.97;2.58;;;10.00;99.90;;;;;;5024308;28;20025;-65
2023/05/01 04:38:38;;;;;;;6.97;2.20;;;10.00;99.90;;;;;;5026619;28;20051;-64
2023/05/01 04:41:06;;;;;;;4.28;2.22;;;10.00;99.90;;;;;;5026403;28;20022;-63
2023/05/01 04:43:32;;;;;;;5.80;2.33;;;10.10;99.90;;;;;;5003705;28;20426;-63
2023/05/01 04:45:57;;;;;;;4.60;2.63;;;10.10;99.90;;;;;;5022134;28;20051;-65
2023/05/01 04:48:23;;;;;;;3.28;2.22;;;10.20;99.90;;;;;;5032141;28;20135;-63
2023/05/01 04:50:49;;;;;;;4.75;2.17;;;10.20;99.90;;;;;;5023646;28;20079;-64
2023/05/01 04:53:14;;;;;;;4.60;2.22;;;10.30;99.90;;;;;;5020571;28;20029;-62
2023/05/01 04:55:40;;;;;;;6.25;2.25;;;10.30;99.90;;;;;;5021302;28;20026;-64
2023/05/01 04:58:05;;;;;;;4.30;2.03;;;10.40;99.90;;;;;;5022275;28;20097;-63
2023/05/01 05:00:31;;;;;;;7.45;2.30;;;10.60;99.90;;;;;;5024640;28;20033;-65
2023/05/01 05:02:56;;;;;;;2.50;1.75;;;10.70;99.90;;;;;;5019667;28;20030;-63
2023/05/01 05:05:22;;;;;;;6.20;1.92;;;10.80;99.90;;;;;;5027398;28;20510;-64
2023/05/01 05:07:47;;;;;;;8.02;2.15;;;10.90;99.90;;;;;;5025567;28;20033;-64
2023/05/01 05:10:13;;;;;;;3.63;1.88;;;11.00;99.90;;;;;;5023984;28;20040;-65
2023/05/01 05:12:39;;;;;;;5.43;2.10;;;11.20;99.90;;;;;;5026213;28;20098;-65
2023/05/01 05:15:05;;;;;;;5.05;2.30;;;11.20;99.90;;;;;;5022062;28;20067;-63
2023/05/01 05:17:31;;;;;;;3.42;1.52;;;11.30;99.90;;;;;;5003153;28;20032;-64
2023/05/01 05:19:57;;;;;;;4.18;1.70;;;11.50;99.90;;;;;;5033942;28;20030;-65
2023/05/01 05:22:24;;;;;;;2.78;1.77;;;11.60;99.90;;;;;;5023106;28;20036;-65
2023/05/01 05:24:55;;;;;;;7.00;2.33;;;11.70;99.90;;;;;;5027260;28;20044;-65
2023/05/01 05:27:21;;;;;;;2.45;1.52;;;11.80;99.90;;;;;;5026073;28;20040;-63
2023/05/01 05:29:46;;;;;;;5.13;1.88;;;11.80;99.90;;;;;;5030435;28;20029;-65
2023/05/01 05:32:12;;;;;;;3.95;1.70;;;11.90;99.90;;;;;;5030837;28;20096;-65
2023/05/01 05:34:38;;;;;;;3.35;1.95;;;12.00;99.90;;;;;;5028479;28;20038;-64
2023/05/01 05:37:03;;;;;;;7.35;1.70;;;12.10;99.90;;;;;;5017136;28;20030;-66
2023/05/01 05:39:30;;;;;;;4.20;1.75;;;12.20;99.90;;;;;;5023460;28;20030;-65
2023/05/01 05:41:56;;;;;;;3.75;2.03;;;12.30;99.90;;;;;;5025962;28;20502;-64
2023/05/01 05:44:21;;;;;;;5.05;2.13;;;12.40;99.90;;;;;;5010946;28;20045;-64
2023/05/01 05:46:47;;;;;;;3.92;1.80;;;12.40;99.90;;;;;;5030245;28;20033;-65
2023/05/01 05:49:13;;;;;;;4.72;2.03;;;12.50;99.90;;;;;;5036980;28;20041;-66
2023/05/01 05:51:38;;;;;;;6.30;2.08;;;12.50;99.90;;;;;;5025151;28;20105;-65
2023/05/01 05:54:04;;;;;;;3.25;1.65;;;12.60;99.90;;;;;;5024679;28;20025;-64
2023/05/01 05:56:29;;;;;;;3.95;1.88;;;12.70;99.90;;;;;;5030094;28;20022;-65
2023/05/01 05:58:55;;;;;;;4.60;2.15;;;12.70;99.90;;;;;;5029188;28;20105;-64
2023/05/01 06:01:21;;;;;;;3.55;1.73;;;12.70;99.90;;;;;;5016905;28;20026;-64
2023/05/01 06:03:47;;;;;;;2.75;1.90;;;12.90;99.90;;;;;;5021410;28;20029;-66
2023/05/01 06:06:12;;;;;;;6.15;1.90;;;12.90;99.90;;;;;;5022636;28;20368;-63
2023/05/01 06:08:38;;;;;;;4.90;1.80;;;13.00;99.90;;;;;;5026712;28;20037;-66
2023/05/01 06:11:04;;;;;;;4.07;1.90;;;13.20;99.90;;;;;;5019125;28;20065;-65
2023/05/01 06:13:29;;;;;;;6.47;1.90;;;13.30;99.90;;;;;;5025728;28;20078;-63
2023/05/01 06:15:56;;;;;;;4.45;1.70;;;13.50;99.90;;;;;;5017010;28;20048;-66
2023/05/01 06:18:21;;;;;;;3.15;1.90;;;13.70;99.40;;;;;;5030765;28;20029;-64
2023/05/01 06:20:47;;;;;;;7.00;1.65;;;13.90;99.20;;;;;;5025317;28;20053;-66
2023/05/01 06:23:13;;;;;;;6.22;1.95;;;13.90;99.10;;;;;;5026863;28;20040;-65
2023/05/01 06:25:39;;;;;;;6.07;1.35;;;14.00;98.20;;;;;;5021187;28;20033;-64
2023/05/01 06:28:05;;;;;;;3.55;1.40;;;14.10;98.20;;;;;;5022504;28;20033;-66
2023/05/01 06:30:30;;;;;;;6.07;2.25;;;14.20;97.70;;;;;;5024492;28;20029;-64
2023/05/01 06:32:56;;;;;;;5.38;1.52;;;14.20;97.90;;;;;;5024146;28;20038;-66
2023/05/01 06:35:22;;;;;;;3.13;1.70;;;14.30;98.40;;;;;;5007167;28;20320;-65
2023/05/01 06:37:47;;;;;;;4.38;1.80;;;14.20;98.40;;;;;;5023595;28;20112;-64
2023/05/01 06:40:13;;;;;;;2.10;1.20;;;14.20;98.20;;;;;;5023289;28;20124;-66
2023/05/01 06:42:39;;;;;;;3.72;1.98;;;14.30;97.30;;;;;;5024459;28;20037;-64
2023/05/01 06:45:06;;;;;;;2.42;1.65;;;14.20;97.90;;;;;;5014426;28;20045;-64
2023/05/01 06:47:32;;;;;;;3.78;1.83;;;14.10;97.80;;;;;;5029219;28;20387;-65
2023/05/01 06:49:57;;;;;;;5.60;1.92;;;14.20;97.70;;;;;;5032829;28;20025;-66
2023/05/01 06:52:23;;;;;;;3.22;2.15;;;14.30;98.40;;;;;;5025494;28;20760;-64
2023/05/01 06:54:49;;;;;;;2.85;1.73;;;14.20;98.40;;;;;;5027892;28;20048;-64
2023/05/01 06:57:15;;;;;;;3.47;1.73;;;14.20;98.50;;;;;;5023103;28;20021;-64
2023/05/01 06:59:41;;;;;;;6.78;1.50;;;14.20;98.20;;;;;;5027599;28;20022;-65
2023/05/01 07:02:06;;;;;;;4.50;1.80;;;14.40;98.50;;;;;;5026503;28;20511;-66
2023/05/01 07:04:32;;;;;;;2.65;1.80;;;14.30;98.90;;;;;;5030738;28;20033;-64
2023/05/01 07:06:58;;;;;;;4.18;1.90;;;14.40;97.80;;;;;;5009756;28;20030;-64
2023/05/01 07:09:23;;;;;;;3.17;1.95;;;14.40;97.30;;;;;;5021273;28;20052;-66
2023/05/01 07:11:49;;;;;;;3.03;1.85;;;14.60;97.90;;;;;;5028906;28;20396;-65
2023/05/01 07:14:15;;;;;;;3.35;1.80;;;14.90;97.10;;;;;;5021530;28;20030;-63
2023/05/01 07:16:41;;;;;;;3.05;1.63;;;14.90;97.20;;;;;;5028018;28;20539;-64
2023/05/01 07:19:06;;;;;;;2.38;1.70;;;14.80;97.80;;;;;;5021608;28;20113;-65
2023/05/01 07:21:32;;;;;;;5.00;1.85;;;14.80;97.30;;;;;;5013109;28;20034;-64
2023/05/01 07:23:58;;;;;;;7.50;1.60;;;14.90;97.50;;;;;;5018560;28;20053;-65
2023/05/01 07:26:26;;;;;;;7.38;2.17;;;15.00;97.00;;;;;;5020004;28;20083;-66
2023/05/01 07:28:52;;;;;;;5.32;2.00;;;15.00;97.00;;;;;;5028465;28;20033;-64
2023/05/01 07:31:18;;;;;;;8.60;4.05;;;14.80;97.00;;;;;;5013761;28;20108;-66
2023/05/01 07:33:44;;;;;;;5.15;2.53;;;14.90;97.60;;;;;;5023447;28;20025;-64
2023/05/01 07:36:10;;;;;;;6.10;1.75;;;15.10;96.90;;;;;;5025889;28;20029;-64
2023/05/01 07:38:35;;;;;;;4.28;1.55;;;15.30;96.60;;;;;;5008058;28;20041;-67
2023/05/01 07:41:01;;;;;;;4.88;2.03;;;15.40;97.30;;;;;;5028020;28;20022;-65
2023/05/01 07:43:27;;;;;;;4.95;1.48;;;15.70;96.00;;;;;;5012555;28;20027;-65
2023/05/01 07:45:57;;;;;;;4.43;2.03;;;16.00;95.70;;;;;;5026048;28;20095;-64
2023/05/01 07:48:23;;;;;;;4.82;1.85;;;16.10;95.90;;;;;;5025819;28;20037;-64
2023/05/01 07:50:49;;;;;;;4.35;1.95;;;16.30;95.00;;;;;;5006391;28;21349;-66
2023/05/01 07:53:15;;;;;;;4.03;1.92;;;16.50;94.40;;;;;;5022984;28;20564;-64
2023/05/01 07:55:40;;;;;;;3.45;2.25;;;16.50;95.10;;;;;;5023092;28;20570;-66
2023/05/01 07:58:06;;;;;;;3.25;1.92;;;16.50;94.10;;;;;;5022315;28;20049;-62
2023/05/01 08:00:31;;;;;;;7.38;2.65;;;16.50;95.30;;;;;;5023683;28;20068;-65
2023/05/01 08:02:57;;;;;;;6.55;2.35;;;16.70;94.10;;;;;;5026326;28;20040;-65
2023/05/01 08:05:23;;;;;;;4.18;1.65;;;16.50;93.70;;;;;;5017767;28;20108;-65
2023/05/01 08:07:48;;;;;;;5.88;2.10;;;16.40;93.90;;;;;;5020889;28;20052;-65
2023/05/01 08:10:14;;;;;;;4.40;1.75;;;16.50;94.20;;;;;;5004595;28;20032;-63
2023/05/01 08:12:40;;;;;;;4.85;1.65;;;16.60;94.00;;;;;;5024464;28;20819;-65
2023/05/01 08:15:06;;;;;;;4.57;1.92;;;16.60;94.50;;;;;;5027052;28;20030;-67
2023/05/01 08:17:33;;;;;;;3.60;2.00;;;16.70;94.30;;;;;;5026271;28;20028;-67
2023/05/01 08:19:59;;;;;;;3.25;1.80;;;16.90;93.30;;;;;;5021667;28;20435;-66
2023/05/01 08:22:25;;;;;;;4.90;1.90;;;17.00;93.20;;;;;;5019809;28;20430;-64
2023/05/01 08:24:50;;;;;;;4.35;2.35;;;17.10;94.10;;;;;;5036433;28;20047;-65
2023/05/01 08:27:16;;;;;;;3.35;1.80;;;17.30;93.90;;;;;;5025342;28;20460;-66
2023/05/01 08:29:42;;;;;;;5.05;2.22;;;17.70;93.50;;;;;;5023754;28;20028;-65
2023/05/01 08:32:08;;;;;;;5.00;2.20;;;17.70;92.00;;;;;;4997680;28;20419;-64
2023/05/01 08:34:33;;;;;;;5.82;3.05;;;18.10;91.80;;;;;;5018228;28;20069;-67
2023/05/01 08:36:59;;;;;;;3.50;1.60;;;18.50;92.00;;;;;;5022043;28;20039;-65
2023/05/01 08:39:24;;;;;;;3.85;2.30;;;18.60;91.80;;;;;;5026105;28;20030;-65
2023/05/01 08:41:51;;;;;;;4.28;2.13;;;18.60;90.90;;;;;;5024099;28;20033;-67
2023/05/01 08:44:19;;;;;;;3.88;1.75;;;18.80;90.30;;;;;;5007053;28;20137;-64
2023/05/01 08:46:56;;;;;;;3.08;2.17;;;19.10;90.40;;;;;;5023523;28;20022;-65
2023/05/01 08:49:24;;;;;;;6.40;1.80;;;19.20;90.50;;;;;;5024037;28;20079;-65
2023/05/01 08:51:52;;;;;;;3.63;1.83;;;18.90;90.80;;;;;;5023382;28;20467;-64
2023/05/01 08:54:19;;;;;;;5.70;1.77;;;18.80;90.40;;;;;;5023886;28;20036;-66
2023/05/01 08:56:46;;;;;;;3.38;1.73;;;18.70;90.80;;;;;;5026134;28;20033;-64
2023/05/01 08:59:13;;;;;;;7.00;1.90;;;18.70;91.30;;;;;;5003384;28;20053;-65
2023/05/01 09:01:40;;;;;;;3.88;1.90;;;18.70;90.40;;;;;;5030077;28;20030;-64
2023/05/01 09:04:08;;;;;;;5.07;2.17;;;18.40;90.40;;;;;;5028768;28;20034;-65
2023/05/01 09:06:34;;;;;;;6.05;1.80;;;18.20;90.60;;;;;;5022648;28;20025;-65
2023/05/01 09:09:00;;;;;;;8.88;1.38;;;18.10;91.40;;;;;;5030454;28;20499;-63
2023/05/01 09:11:26;;;;;;;2.35;1.40;;;18.10;91.00;;;;;;5033146;28;20036;-65
2023/05/01 09:13:52;;;;;;;2.50;1.60;;;18.00;91.00;;;;;;5031069;28;20037;-63
2023/05/01 09:16:19;;;;;;;3.42;1.85;;;17.90;91.20;;;;;;5029168;28;20049;-64
2023/05/01 09:18:45;;;;;;;4.78;1.95;;;17.80;90.90;;;;;;5027712;28;20021;-64
2023/05/01 09:21:12;;;;;;;3.47;2.20;;;17.70;91.60;;;;;;5026685;28;20506;-65
2023/05/01 09:23:39;;;;;;;4.18;1.88;;;17.80;91.00;;;;;;5023388;28;20167;-64
2023/05/01 09:26:06;;;;;;;4.40;2.17;;;17.90;90.80;;;;;;5025471;28;20079;-66
2023/05/01 09:28:44;;;;;;;3.20;1.83;;;18.20;90.70;;;;;;5031243;28;20026;-65
2023/05/01 09:31:25;;;;;;;3.35;1.88;;;18.20;90.80;;;;;;5025633;28;20024;-66
2023/05/01 09:33:55;;;;;;;3.42;1.70;;;18.20;90.40;;;;;;5030772;28;20395;-66
2023/05/01 09:36:22;;;;;;;2.67;1.73;;;18.50;90.90;;;;;;5030579;28;20027;-65
2023/05/01 09:38:48;;;;;;;7.53;1.80;;;18.40;90.80;;;;;;5030589;28;20026;-67
2023/05/01 09:41:13;;;;;;;4.55;2.22;;;18.60;90.80;;;;;;5027360;28;20037;-64
2023/05/01 09:43:40;;;;;;;3.65;2.17;;;19.10;90.00;;;;;;5019593;28;20029;-65
2023/05/01 09:46:10;;;;;;;3.50;2.00;;;19.00;89.80;;;;;;5010214;28;20045;-64
2023/05/01 09:48:36;;;;;;;4.65;1.88;;;19.10;90.10;;;;;;5028300;28;20029;-65
2023/05/01 09:51:21;;;;;;;5.15;1.92;;;19.10;89.60;;;;;;5030834;28;20025;-66
2023/05/01 09:53:47;;;;;;;2.75;1.45;;;19.20;89.70;;;;;;5026830;28;20037;-65
2023/05/01 09:56:13;;;;;;;5.47;2.00;;;19.50;89.30;;;;;;5030008;28;20515;-65
2023/05/01 09:58:39;;;;;;;4.20;2.20;;;20.00;87.60;;;;;;5038879;22;20041;-66
2023/05/01 10:01:05;;;;;;;6.60;2.03;;;20.30;88.60;;;;;;5010599;28;20120;-65
2023/05/01 10:03:32;;;;;;;4.10;1.70;;;20.40;87.90;;;;;;5026526;28;20446;-65
2023/05/01 10:06:00;;;;;;;3.58;1.50;;;20.60;86.50;;;;;;5032465;28;20030;-66
2023/05/01 10:08:26;;;;;;;3.58;1.75;;;20.50;85.30;;;;;;5030013;28;20086;-65
2023/05/01 10:11:04;;;;;;;7.60;1.80;;;20.50;85.30;;;;;;5008010;28;20034;-65
2023/05/01 10:13:30;;;;;;;2.78;1.65;;;20.70;85.20;;;;;;5018066;28;20561;-65
2023/05/01 10:15:56;;;;;;;4.28;2.03;;;20.90;85.00;;;;;;4993181;28;20022;-65
2023/05/01 10:18:22;;;;;;;3.28;2.03;;;21.00;83.30;;;;;;5012711;28;20028;-66
2023/05/01 10:20:48;;;;;;;3.28;1.90;;;21.00;82.80;;;;;;5011985;28;20037;-66
2023/05/01 10:23:14;;;;;;;5.75;2.15;;;21.00;83.00;;;;;;5019066;28;20029;-65
2023/05/01 10:25:41;;;;;;;5.10;1.95;;;20.80;83.20;;;;;;5011595;28;20112;-66
2023/05/01 10:28:08;;;;;;;4.70;1.73;;;21.10;81.00;;;;;;5024223;28;20041;-65
2023/05/01 10:30:35;;;;;;;4.60;1.98;;;20.90;82.40;;;;;;5008803;28;20030;-65
2023/05/01 10:33:01;;;;;;;4.18;1.95;;;21.30;83.80;;;;;;5016597;28;20025;-66
2023/05/01 10:35:32;;;;;;;3.67;1.80;;;21.70;80.60;;;;;;4996674;28;20025;-66
2023/05/01 10:38:25;;;;;;;5.97;1.83;;;21.50;79.60;;;;;;5010718;28;20044;-66
2023/05/01 10:40:51;;;;;;;2.05;1.23;;;21.50;81.80;;;;;;4995560;28;20048;-65
2023/05/01 10:43:28;;;;;;;3.00;1.75;;;21.70;79.80;;;;;;4992068;28;20133;-66
2023/05/01 10:46:19;;;;;;;3.90;1.60;;;21.60;79.30;;;;;;4991893;28;20050;-66
2023/05/01 10:48:45;;;;;;;3.50;1.80;;;21.50;79.70;;;;;;5003449;28;20462;-65
2023/05/01 10:51:16;;;;;;;3.08;1.80;;;22.00;79.20;;;;;;5011798;28;20084;-66
2023/05/01 10:54:03;;;;;;;5.05;1.90;;;22.00;78.90;;;;;;5005578;28;20647;-65
2023/05/01 10:56:31;;;;;;;3.78;1.52;;;22.50;78.30;;;;;;4986700;28;20045;-65
2023/05/01 10:59:03;;;;;;;1.63;1.15;;;23.00;78.00;;;;;;5005433;28;20018;-65
2023/05/01 11:01:30;;;;;;;3.85;1.90;;;23.20;77.20;;;;;;5010793;28;20049;-65
2023/05/01 11:04:03;;;;;;;5.18;1.45;;;22.70;76.90;;;;;;5017268;28;20038;-65
2023/05/01 11:06:29;;;;;;;3.42;1.65;;;23.00;77.10;;;;;;5009674;28;20044;-65
2023/05/01 11:08:56;;;;;;;2.55;1.63;;;22.60;76.90;;;;;;5016559;28;20421;-66
2023/05/01 11:11:24;;;;;;;2.53;1.30;;;23.00;80.00;;;;;;5006954;28;20108;-65
2023/05/01 11:14:09;;;;;;;2.30;1.67;;;22.90;76.10;;;;;;5017371;28;20452;-65
2023/05/01 11:16:40;;;;;;;4.45;1.40;;;22.40;79.70;;;;;;5010522;28;20403;-65
2023/05/01 11:19:21;;;;;;;3.85;1.67;;;22.20;77.70;;;;;;5018362;28;20018;-65
2023/05/01 11:21:48;;;;;;;1.73;1.15;;;21.90;76.70;;;;;;5008543;28;20045;-65
2023/05/01 11:24:13;;;;;;;3.33;1.80;;;21.90;77.00;;;;;;5015197;28;20044;-65
2023/05/01 11:26:41;;;;;;;6.22;2.00;;;21.60;78.20;;;;;;5004787;28;20034;-65
2023/05/01 11:29:09;;;;;;;3.08;1.73;;;21.80;79.50;;;;;;5022250;28;20116;-66
2023/05/01 11:31:35;;;;;;;6.65;1.73;;;22.10;77.70;;;;;;5003845;28;20108;-65
2023/05/01 11:34:01;;;;;;;5.60;2.17;;;21.80;77.20;;;;;;5006568;28;20088;-65
2023/05/01 11:36:29;;;;;;;4.43;1.33;;;22.00;77.80;;;;;;5007042;28;20036;-66
2023/05/01 11:38:57;;;;;;;2.38;1.30;;;21.90;76.50;;;;;;5003741;28;20030;-65
2023/05/01 11:41:23;;;;;;;2.08;1.40;;;22.10;76.50;;;;;;4991242;28;20026;-65
2023/05/01 11:43:50;;;;;;;3.28;1.58;;;21.90;75.50;;;;;;5005091;28;20377;-65
2023/05/01 11:46:26;;;;;;;2.20;1.23;;;21.70;76.90;;;;;;4979952;28;20533;-66
2023/05/01 11:48:53;;;;;;;2.85;1.40;;;21.70;77.20;;;;;;5010619;28;20080;-65
2023/05/01 11:51:18;;;;;;;2.05;1.45;;;21.50;77.40;;;;;;4999115;28;20038;-66
2023/05/01 11:54:04;;;;;;;2.45;1.33;;;21.60;76.90;;;;;;5008648;28;20022;-65
2023/05/01 11:56:31;;;;;;;3.00;1.63;;;21.70;77.90;;;;;;5006404;28;20084;-66
2023/05/01 11:58:58;;;;;;;2.42;1.33;;;21.80;77.50;;;;;;5010815;28;20036;-65
2023/05/01 12:01:37;;;;;;;4.45;1.33;;;22.20;78.40;;;;;;5006769;28;20040;-66
2023/05/01 12:04:04;;;;;;;2.25;1.27;;;22.20;77.50;;;;;;5015347;28;20030;-66
2023/05/01 12:06:44;;;;;;;5.75;1.50;;;22.40;76.80;;;;;;5006404;28;20021;-65
2023/05/01 12:09:19;;;;;;;1.85;1.25;;;22.50;75.50;;;;;;5009807;28;20026;-66
2023/05/01 12:11:46;;;;;;;3.75;2.30;;;22.40;74.60;;;;;;5004783;28;20045;-66
2023/05/01 12:14:13;;;;;;;2.13;0.90;;;22.00;74.00;;;;;;5007241;28;20185;-66
2023/05/01 12:16:39;;;;;;;1.95;1.23;;;22.10;76.50;;;;;;4991001;28;20038;-65
2023/05/01 12:19:06;;;;;;;1.92;1.30;;;22.70;73.10;;;;;;5008950;28;20476;-65
2023/05/01 12:21:32;;;;;;;3.08;1.00;;;22.80;74.30;;;;;;5004209;28;20048;-65
2023/05/01 12:24:15;;;;;;;0.80;0.70;;;22.50;70.60;;;;;;5014140;28;20492;-66
2023/05/01 12:26:41;;;;;;;2.25;0.80;;;22.70;69.10;;;;;;5008428;28;20033;-65
2023/05/01 12:29:10;;;;;;;1.60;0.70;;;22.80;66.00;;;;;;5010437;28;20124;-66
2023/05/01 12:31:44;;;;;;;0.88;0.82;;;22.80;65.60;;;;;;5008387;28;20041;-66
2023/05/01 12:34:11;;;;;;;1.15;0.98;;;22.30;66.90;;;;;;4985746;28;20030;-66
2023/05/01 12:36:37;;;;;;;1.38;1.10;;;21.90;66.70;;;;;;4998804;28;20022;-66
2023/05/01 12:39:08;;;;;;;0.85;0.77;;;21.80;70.80;;;;;;5010025;28;20081;-66
2023/05/01 12:41:45;;;;;;;1.23;0.90;;;22.00;70.20;;;;;;5005778;28;20061;-66
2023/05/01 12:44:19;;;;;;;0.95;0.90;;;22.00;72.30;;;;;;5021366;28;20044;-66
2023/05/01 12:46:57;;;;;;;2.40;0.98;;;21.50;70.00;;;;;;5005114;28;20050;-65
2023/05/01 12:49:23;;;;;;;1.40;0.80;;;21.60;70.00;;;;;;5010727;28;20026;-65
2023/05/01 12:51:50;;;;;;;1.13;0.80;;;21.40;68.60;;;;;;5005429;28;20087;-66